North Kingstown, Rhode Island
Current Conditions -  °F | °C
As of 5:53 AM on Saturday 22 Nov 2014 (Local Time) from KUUU Reporting Station
Clear Clear  
Wind Chill: 23°   Ceiling: Unl
Heat Index: 29°   Visibility: 10mi
Dew Point: 12°   Wind: 6mph
Humidity: 49%   Direction: 280°W
Pressure: 30.44"   Gusts: NA
Location:  41.6°N, 71.42°W
Report Text: KUUU 221053Z AUTO 28005KT 10SM CLR M02/M11 A3044 RMK AO2 SLP309 T10171111
Loading
Personal Weather Stations






























Interactive Weather Map New forecast layout! Learn more

10-Day Weather Forecast

Advertisements
Track Severe Weather on mobile